sensor_id;sensor_type;location;lat;lon;timestamp;P1;durP1;ratioP1;P2;durP2;ratioP2
75935;SDS011;64614;32.062;34.834;2022-12-07T00:00:54;35.60;;;18.52;;
75935;SDS011;64614;32.062;34.834;2022-12-07T00:03:20;35.05;;;19.45;;
75935;SDS011;64614;32.062;34.834;2022-12-07T00:05:46;33.63;;;18.58;;
75935;SDS011;64614;32.062;34.834;2022-12-07T00:08:12;39.80;;;20.70;;
75935;SDS011;64614;32.062;34.834;2022-12-07T00:10:37;33.80;;;18.90;;
75935;SDS011;64614;32.062;34.834;2022-12-07T00:13:03;31.55;;;17.95;;
75935;SDS011;64614;32.062;34.834;2022-12-07T00:15:28;31.02;;;18.05;;
75935;SDS011;64614;32.062;34.834;2022-12-07T00:17:54;28.65;;;17.00;;
75935;SDS011;64614;32.062;34.834;2022-12-07T00:20:20;33.35;;;18.20;;
75935;SDS011;64614;32.062;34.834;2022-12-07T00:22:45;32.92;;;18.42;;
75935;SDS011;64614;32.062;34.834;2022-12-07T00:25:11;29.52;;;17.45;;
75935;SDS011;64614;32.062;34.834;2022-12-07T00:27:37;28.63;;;16.95;;
75935;SDS011;64614;32.062;34.834;2022-12-07T00:30:03;28.83;;;16.10;;
75935;SDS011;64614;32.062;34.834;2022-12-07T00:32:29;27.30;;;16.67;;
75935;SDS011;64614;32.062;34.834;2022-12-07T00:34:55;29.08;;;16.02;;
75935;SDS011;64614;32.062;34.834;2022-12-07T00:37:20;28.27;;;16.85;;
75935;SDS011;64614;32.062;34.834;2022-12-07T00:39:46;29.08;;;17.48;;
75935;SDS011;64614;32.062;34.834;2022-12-07T00:42:12;26.30;;;15.00;;
75935;SDS011;64614;32.062;34.834;2022-12-07T00:44:37;24.30;;;14.55;;
75935;SDS011;64614;32.062;34.834;2022-12-07T00:47:03;25.95;;;15.68;;
75935;SDS011;64614;32.062;34.834;2022-12-07T00:49:29;26.15;;;15.70;;
75935;SDS011;64614;32.062;34.834;2022-12-07T00:51:54;23.67;;;15.18;;
75935;SDS011;64614;32.062;34.834;2022-12-07T00:54:20;25.30;;;16.58;;
75935;SDS011;64614;32.062;34.834;2022-12-07T00:56:46;26.65;;;15.65;;
75935;SDS011;64614;32.062;34.834;2022-12-07T00:59:12;26.85;;;15.10;;
75935;SDS011;64614;32.062;34.834;2022-12-07T01:01:41;26.52;;;15.60;;
75935;SDS011;64614;32.062;34.834;2022-12-07T01:04:07;23.85;;;14.77;;
75935;SDS011;64614;32.062;34.834;2022-12-07T01:06:33;24.70;;;14.68;;
75935;SDS011;64614;32.062;34.834;2022-12-07T01:08:59;24.05;;;13.98;;
75935;SDS011;64614;32.062;34.834;2022-12-07T01:11:26;22.10;;;13.98;;
75935;SDS011;64614;32.062;34.834;2022-12-07T01:13:54;23.65;;;14.55;;
75935;SDS011;64614;32.062;34.834;2022-12-07T01:16:22;22.48;;;14.02;;
75935;SDS011;64614;32.062;34.834;2022-12-07T01:18:50;21.27;;;13.73;;
75935;SDS011;64614;32.062;34.834;2022-12-07T01:21:21;22.05;;;12.88;;
75935;SDS011;64614;32.062;34.834;2022-12-07T01:23:49;20.77;;;13.40;;
75935;SDS011;64614;32.062;34.834;2022-12-07T01:26:16;21.30;;;14.57;;
75935;SDS011;64614;32.062;34.834;2022-12-07T01:28:44;22.85;;;13.43;;
75935;SDS011;64614;32.062;34.834;2022-12-07T01:31:12;19.90;;;12.95;;
75935;SDS011;64614;32.062;34.834;2022-12-07T01:33:46;20.92;;;13.02;;
75935;SDS011;64614;32.062;34.834;2022-12-07T01:39:08;20.63;;;13.77;;
75935;SDS011;64614;32.062;34.834;2022-12-07T01:41:36;22.70;;;13.13;;
75935;SDS011;64614;32.062;34.834;2022-12-07T01:44:07;22.10;;;13.75;;
75935;SDS011;64614;32.062;34.834;2022-12-07T01:46:34;23.33;;;13.15;;
75935;SDS011;64614;32.062;34.834;2022-12-07T01:49:00;22.65;;;13.32;;
75935;SDS011;64614;32.062;34.834;2022-12-07T01:51:28;17.58;;;12.85;;
75935;SDS011;64614;32.062;34.834;2022-12-07T01:53:55;21.52;;;13.93;;
75935;SDS011;64614;32.062;34.834;2022-12-07T01:56:22;22.73;;;13.73;;
75935;SDS011;64614;32.062;34.834;2022-12-07T01:58:51;20.30;;;12.63;;
75935;SDS011;64614;32.062;34.834;2022-12-07T02:01:18;21.83;;;13.52;;
75935;SDS011;64614;32.062;34.834;2022-12-07T02:03:44;24.58;;;14.90;;
75935;SDS011;64614;32.062;34.834;2022-12-07T02:06:11;21.80;;;13.45;;
75935;SDS011;64614;32.062;34.834;2022-12-07T02:08:42;21.10;;;13.57;;
75935;SDS011;64614;32.062;34.834;2022-12-07T02:11:08;23.27;;;13.68;;
75935;SDS011;64614;32.062;34.834;2022-12-07T02:13:36;19.48;;;12.77;;
75935;SDS011;64614;32.062;34.834;2022-12-07T02:29:22;23.20;;;13.38;;
75935;SDS011;64614;32.062;34.834;2022-12-07T02:31:54;24.00;;;13.23;;
75935;SDS011;64614;32.062;34.834;2022-12-07T02:37:19;22.48;;;13.20;;
75935;SDS011;64614;32.062;34.834;2022-12-07T02:39:57;21.15;;;12.80;;
75935;SDS011;64614;32.062;34.834;2022-12-07T02:42:31;21.38;;;13.07;;
75935;SDS011;64614;32.062;34.834;2022-12-07T02:45:02;18.23;;;11.63;;
75935;SDS011;64614;32.062;34.834;2022-12-07T02:47:30;23.92;;;12.07;;
75935;SDS011;64614;32.062;34.834;2022-12-07T02:49:58;17.80;;;11.10;;
75935;SDS011;64614;32.062;34.834;2022-12-07T02:52:24;18.15;;;11.40;;
75935;SDS011;64614;32.062;34.834;2022-12-07T02:54:49;15.77;;;10.98;;
75935;SDS011;64614;32.062;34.834;2022-12-07T03:02:55;18.25;;;11.30;;
75935;SDS011;64614;32.062;34.834;2022-12-07T03:08:42;18.42;;;10.82;;
75935;SDS011;64614;32.062;34.834;2022-12-07T03:14:08;17.63;;;10.80;;
75935;SDS011;64614;32.062;34.834;2022-12-07T03:16:44;16.80;;;10.77;;
75935;SDS011;64614;32.062;34.834;2022-12-07T03:19:18;17.65;;;10.68;;
75935;SDS011;64614;32.062;34.834;2022-12-07T03:21:49;15.20;;;10.07;;
75935;SDS011;64614;32.062;34.834;2022-12-07T03:24:26;15.57;;;11.25;;
75935;SDS011;64614;32.062;34.834;2022-12-07T03:26:59;16.42;;;11.30;;
75935;SDS011;64614;32.062;34.834;2022-12-07T03:29:34;18.15;;;10.57;;
75935;SDS011;64614;32.062;34.834;2022-12-07T03:32:06;16.77;;;11.18;;
75935;SDS011;64614;32.062;34.834;2022-12-07T03:37:26;15.80;;;10.65;;
75935;SDS011;64614;32.062;34.834;2022-12-07T03:42:48;17.02;;;10.15;;
75935;SDS011;64614;32.062;34.834;2022-12-07T03:45:15;19.00;;;12.07;;
75935;SDS011;64614;32.062;34.834;2022-12-07T03:52:58;18.48;;;10.57;;
75935;SDS011;64614;32.062;34.834;2022-12-07T03:55:37;15.93;;;10.63;;
75935;SDS011;64614;32.062;34.834;2022-12-07T03:58:09;14.73;;;10.00;;
75935;SDS011;64614;32.062;34.834;2022-12-07T04:00:41;18.42;;;10.60;;
75935;SDS011;64614;32.062;34.834;2022-12-07T04:03:08;15.90;;;9.85;;
75935;SDS011;64614;32.062;34.834;2022-12-07T04:05:34;17.13;;;9.25;;
75935;SDS011;64614;32.062;34.834;2022-12-07T04:08:00;16.92;;;9.25;;
75935;SDS011;64614;32.062;34.834;2022-12-07T04:10:26;16.25;;;9.32;;
75935;SDS011;64614;32.062;34.834;2022-12-07T04:12:51;15.43;;;8.57;;
75935;SDS011;64614;32.062;34.834;2022-12-07T04:15:17;15.00;;;8.70;;
75935;SDS011;64614;32.062;34.834;2022-12-07T04:17:43;15.40;;;8.85;;
75935;SDS011;64614;32.062;34.834;2022-12-07T04:20:09;13.38;;;8.50;;
75935;SDS011;64614;32.062;34.834;2022-12-07T04:22:35;17.67;;;8.50;;
75935;SDS011;64614;32.062;34.834;2022-12-07T04:25:01;15.52;;;8.63;;
75935;SDS011;64614;32.062;34.834;2022-12-07T04:27:28;13.88;;;9.05;;
75935;SDS011;64614;32.062;34.834;2022-12-07T04:30:01;16.52;;;9.00;;
75935;SDS011;64614;32.062;34.834;2022-12-07T04:32:30;19.38;;;9.70;;
75935;SDS011;64614;32.062;34.834;2022-12-07T04:37:21;23.08;;;9.65;;
75935;SDS011;64614;32.062;34.834;2022-12-07T04:39:47;18.75;;;10.23;;
75935;SDS011;64614;32.062;34.834;2022-12-07T04:42:32;17.60;;;10.23;;
75935;SDS011;64614;32.062;34.834;2022-12-07T04:47:24;16.83;;;9.70;;
75935;SDS011;64614;32.062;34.834;2022-12-07T04:49:55;17.20;;;9.32;;
75935;SDS011;64614;32.062;34.834;2022-12-07T04:52:21;17.58;;;9.80;;
75935;SDS011;64614;32.062;34.834;2022-12-07T04:54:47;19.77;;;9.77;;
75935;SDS011;64614;32.062;34.834;2022-12-07T04:57:12;16.05;;;9.95;;
75935;SDS011;64614;32.062;34.834;2022-12-07T04:59:38;17.20;;;8.82;;
75935;SDS011;64614;32.062;34.834;2022-12-07T05:02:04;16.38;;;9.30;;
75935;SDS011;64614;32.062;34.834;2022-12-07T05:04:30;15.57;;;9.00;;
75935;SDS011;64614;32.062;34.834;2022-12-07T05:06:55;18.00;;;9.65;;
75935;SDS011;64614;32.062;34.834;2022-12-07T05:09:21;24.92;;;10.75;;
75935;SDS011;64614;32.062;34.834;2022-12-07T05:11:47;18.98;;;9.50;;
75935;SDS011;64614;32.062;34.834;2022-12-07T05:14:14;16.90;;;8.77;;
75935;SDS011;64614;32.062;34.834;2022-12-07T05:16:42;17.60;;;9.40;;
75935;SDS011;64614;32.062;34.834;2022-12-07T05:19:08;15.60;;;9.00;;
75935;SDS011;64614;32.062;34.834;2022-12-07T05:21:35;15.20;;;8.85;;
75935;SDS011;64614;32.062;34.834;2022-12-07T05:24:01;21.30;;;11.07;;
75935;SDS011;64614;32.062;34.834;2022-12-07T05:26:27;16.63;;;9.90;;
75935;SDS011;64614;32.062;34.834;2022-12-07T05:28:55;19.00;;;10.98;;
75935;SDS011;64614;32.062;34.834;2022-12-07T05:31:22;17.10;;;11.57;;
75935;SDS011;64614;32.062;34.834;2022-12-07T05:33:48;17.40;;;10.60;;
75935;SDS011;64614;32.062;34.834;2022-12-07T05:36:16;20.27;;;9.38;;
75935;SDS011;64614;32.062;34.834;2022-12-07T05:38:42;16.40;;;9.27;;
75935;SDS011;64614;32.062;34.834;2022-12-07T05:41:08;15.38;;;8.43;;
75935;SDS011;64614;32.062;34.834;2022-12-07T05:43:57;16.23;;;8.38;;
75935;SDS011;64614;32.062;34.834;2022-12-07T05:46:25;16.52;;;8.40;;
75935;SDS011;64614;32.062;34.834;2022-12-07T05:48:52;16.40;;;7.55;;
75935;SDS011;64614;32.062;34.834;2022-12-07T05:51:18;17.90;;;7.90;;
75935;SDS011;64614;32.062;34.834;2022-12-07T05:53:45;18.52;;;7.93;;
75935;SDS011;64614;32.062;34.834;2022-12-07T05:56:10;15.90;;;8.13;;
75935;SDS011;64614;32.062;34.834;2022-12-07T05:58:37;19.98;;;7.93;;
75935;SDS011;64614;32.062;34.834;2022-12-07T06:01:21;15.38;;;7.60;;
75935;SDS011;64614;32.062;34.834;2022-12-07T06:03:48;12.65;;;6.75;;
75935;SDS011;64614;32.062;34.834;2022-12-07T06:06:15;15.20;;;7.38;;
75935;SDS011;64614;32.062;34.834;2022-12-07T06:08:41;15.15;;;7.60;;
75935;SDS011;64614;32.062;34.834;2022-12-07T06:11:08;13.85;;;6.93;;
75935;SDS011;64614;32.062;34.834;2022-12-07T06:13:53;14.43;;;7.03;;
75935;SDS011;64614;32.062;34.834;2022-12-07T06:16:21;17.55;;;7.20;;
75935;SDS011;64614;32.062;34.834;2022-12-07T06:18:49;13.98;;;7.07;;
75935;SDS011;64614;32.062;34.834;2022-12-07T06:21:17;14.32;;;6.55;;
75935;SDS011;64614;32.062;34.834;2022-12-07T06:23:43;14.23;;;7.53;;
75935;SDS011;64614;32.062;34.834;2022-12-07T06:26:09;12.65;;;7.63;;
75935;SDS011;64614;32.062;34.834;2022-12-07T06:28:34;16.40;;;8.60;;
75935;SDS011;64614;32.062;34.834;2022-12-07T06:31:00;17.17;;;8.02;;
75935;SDS011;64614;32.062;34.834;2022-12-07T06:33:27;13.90;;;8.70;;
75935;SDS011;64614;32.062;34.834;2022-12-07T06:35:53;12.88;;;7.65;;
75935;SDS011;64614;32.062;34.834;2022-12-07T06:38:19;16.27;;;7.88;;
75935;SDS011;64614;32.062;34.834;2022-12-07T06:40:45;15.57;;;7.53;;
75935;SDS011;64614;32.062;34.834;2022-12-07T06:43:10;16.40;;;8.32;;
75935;SDS011;64614;32.062;34.834;2022-12-07T06:45:36;13.50;;;7.22;;
75935;SDS011;64614;32.062;34.834;2022-12-07T06:48:02;13.68;;;7.38;;
75935;SDS011;64614;32.062;34.834;2022-12-07T06:50:28;17.38;;;7.38;;
75935;SDS011;64614;32.062;34.834;2022-12-07T06:52:54;14.88;;;8.00;;
75935;SDS011;64614;32.062;34.834;2022-12-07T06:55:20;13.23;;;7.13;;
75935;SDS011;64614;32.062;34.834;2022-12-07T06:57:45;15.55;;;6.85;;
75935;SDS011;64614;32.062;34.834;2022-12-07T07:00:11;12.70;;;7.68;;
75935;SDS011;64614;32.062;34.834;2022-12-07T07:02:37;15.93;;;6.70;;
75935;SDS011;64614;32.062;34.834;2022-12-07T07:05:03;14.35;;;6.63;;
75935;SDS011;64614;32.062;34.834;2022-12-07T07:07:29;14.98;;;7.28;;
75935;SDS011;64614;32.062;34.834;2022-12-07T07:09:55;12.80;;;6.60;;
75935;SDS011;64614;32.062;34.834;2022-12-07T07:12:20;13.68;;;6.88;;
75935;SDS011;64614;32.062;34.834;2022-12-07T07:14:47;18.25;;;6.78;;
75935;SDS011;64614;32.062;34.834;2022-12-07T07:17:13;14.50;;;6.22;;
75935;SDS011;64614;32.062;34.834;2022-12-07T07:19:38;13.55;;;6.38;;
75935;SDS011;64614;32.062;34.834;2022-12-07T07:22:04;13.70;;;6.65;;
75935;SDS011;64614;32.062;34.834;2022-12-07T07:24:30;13.88;;;6.13;;
75935;SDS011;64614;32.062;34.834;2022-12-07T07:26:56;14.38;;;6.78;;
75935;SDS011;64614;32.062;34.834;2022-12-07T07:29:21;12.05;;;6.45;;
75935;SDS011;64614;32.062;34.834;2022-12-07T07:31:47;12.15;;;6.28;;
75935;SDS011;64614;32.062;34.834;2022-12-07T07:34:13;13.63;;;6.70;;
75935;SDS011;64614;32.062;34.834;2022-12-07T07:36:40;17.80;;;7.00;;
75935;SDS011;64614;32.062;34.834;2022-12-07T07:39:06;13.27;;;6.32;;
75935;SDS011;64614;32.062;34.834;2022-12-07T07:41:31;13.50;;;5.88;;
75935;SDS011;64614;32.062;34.834;2022-12-07T07:43:57;12.88;;;6.38;;
75935;SDS011;64614;32.062;34.834;2022-12-07T07:46:23;11.82;;;6.70;;
75935;SDS011;64614;32.062;34.834;2022-12-07T07:48:48;13.20;;;6.75;;
75935;SDS011;64614;32.062;34.834;2022-12-07T07:51:14;11.60;;;6.85;;
75935;SDS011;64614;32.062;34.834;2022-12-07T07:53:41;18.58;;;6.70;;
75935;SDS011;64614;32.062;34.834;2022-12-07T07:56:06;12.48;;;6.47;;
75935;SDS011;64614;32.062;34.834;2022-12-07T07:58:32;13.52;;;6.45;;
75935;SDS011;64614;32.062;34.834;2022-12-07T08:01:03;12.48;;;6.60;;
75935;SDS011;64614;32.062;34.834;2022-12-07T08:03:30;13.20;;;6.40;;
75935;SDS011;64614;32.062;34.834;2022-12-07T08:05:56;11.80;;;6.22;;
75935;SDS011;64614;32.062;34.834;2022-12-07T08:08:22;13.13;;;6.40;;
75935;SDS011;64614;32.062;34.834;2022-12-07T08:10:48;12.35;;;6.13;;
75935;SDS011;64614;32.062;34.834;2022-12-07T08:13:17;11.52;;;6.00;;
75935;SDS011;64614;32.062;34.834;2022-12-07T08:15:44;14.38;;;6.15;;
75935;SDS011;64614;32.062;34.834;2022-12-07T08:18:11;12.95;;;6.55;;
75935;SDS011;64614;32.062;34.834;2022-12-07T08:20:38;12.10;;;5.70;;
75935;SDS011;64614;32.062;34.834;2022-12-07T08:23:06;15.25;;;6.20;;
75935;SDS011;64614;32.062;34.834;2022-12-07T08:25:32;12.50;;;6.28;;
75935;SDS011;64614;32.062;34.834;2022-12-07T08:27:58;12.18;;;5.82;;
75935;SDS011;64614;32.062;34.834;2022-12-07T08:30:26;12.18;;;5.93;;
75935;SDS011;64614;32.062;34.834;2022-12-07T08:32:53;12.48;;;6.28;;
75935;SDS011;64614;32.062;34.834;2022-12-07T08:35:19;14.13;;;6.65;;
75935;SDS011;64614;32.062;34.834;2022-12-07T08:37:46;14.80;;;6.45;;
75935;SDS011;64614;32.062;34.834;2022-12-07T08:40:12;15.32;;;6.43;;
75935;SDS011;64614;32.062;34.834;2022-12-07T08:42:44;15.15;;;7.35;;
75935;SDS011;64614;32.062;34.834;2022-12-07T08:45:15;13.40;;;7.35;;
75935;SDS011;64614;32.062;34.834;2022-12-07T08:48:04;12.52;;;6.70;;
75935;SDS011;64614;32.062;34.834;2022-12-07T08:50:33;13.43;;;7.50;;
75935;SDS011;64614;32.062;34.834;2022-12-07T08:53:01;14.32;;;7.10;;
75935;SDS011;64614;32.062;34.834;2022-12-07T08:55:29;13.02;;;6.93;;
75935;SDS011;64614;32.062;34.834;2022-12-07T08:57:59;13.00;;;6.60;;
75935;SDS011;64614;32.062;34.834;2022-12-07T09:00:25;10.85;;;6.32;;
75935;SDS011;64614;32.062;34.834;2022-12-07T09:02:52;13.30;;;7.07;;
75935;SDS011;64614;32.062;34.834;2022-12-07T09:05:18;14.93;;;7.20;;
75935;SDS011;64614;32.062;34.834;2022-12-07T09:07:45;14.82;;;7.78;;
75935;SDS011;64614;32.062;34.834;2022-12-07T09:10:14;16.30;;;7.32;;
75935;SDS011;64614;32.062;34.834;2022-12-07T09:12:39;13.88;;;6.70;;
75935;SDS011;64614;32.062;34.834;2022-12-07T09:15:05;13.25;;;6.97;;
75935;SDS011;64614;32.062;34.834;2022-12-07T09:17:32;16.65;;;7.10;;
75935;SDS011;64614;32.062;34.834;2022-12-07T09:19:58;14.18;;;7.13;;
75935;SDS011;64614;32.062;34.834;2022-12-07T09:22:28;13.85;;;6.97;;
75935;SDS011;64614;32.062;34.834;2022-12-07T09:24:54;13.45;;;7.30;;
75935;SDS011;64614;32.062;34.834;2022-12-07T09:27:19;14.32;;;7.45;;
75935;SDS011;64614;32.062;34.834;2022-12-07T09:29:45;14.38;;;7.25;;
75935;SDS011;64614;32.062;34.834;2022-12-07T09:32:11;19.35;;;8.63;;
75935;SDS011;64614;32.062;34.834;2022-12-07T09:34:36;19.15;;;9.07;;
75935;SDS011;64614;32.062;34.834;2022-12-07T09:37:02;16.38;;;8.45;;
75935;SDS011;64614;32.062;34.834;2022-12-07T09:39:28;18.58;;;9.70;;
75935;SDS011;64614;32.062;34.834;2022-12-07T09:41:54;20.75;;;9.00;;
75935;SDS011;64614;32.062;34.834;2022-12-07T09:44:23;17.45;;;9.13;;
75935;SDS011;64614;32.062;34.834;2022-12-07T09:46:50;19.73;;;8.63;;
75935;SDS011;64614;32.062;34.834;2022-12-07T09:49:19;19.48;;;8.95;;
75935;SDS011;64614;32.062;34.834;2022-12-07T09:51:47;15.52;;;8.10;;
75935;SDS011;64614;32.062;34.834;2022-12-07T09:54:24;16.90;;;8.15;;
75935;SDS011;64614;32.062;34.834;2022-12-07T09:56:49;17.17;;;7.53;;
75935;SDS011;64614;32.062;34.834;2022-12-07T09:59:18;17.13;;;7.20;;
75935;SDS011;64614;32.062;34.834;2022-12-07T10:01:46;13.63;;;7.32;;
75935;SDS011;64614;32.062;34.834;2022-12-07T10:04:19;18.05;;;7.00;;
75935;SDS011;64614;32.062;34.834;2022-12-07T10:06:49;12.38;;;6.18;;
75935;SDS011;64614;32.062;34.834;2022-12-07T10:09:17;13.48;;;6.32;;
75935;SDS011;64614;32.062;34.834;2022-12-07T10:12:00;12.32;;;6.07;;
75935;SDS011;64614;32.062;34.834;2022-12-07T10:14:35;14.10;;;6.00;;
75935;SDS011;64614;32.062;34.834;2022-12-07T10:17:12;13.27;;;5.97;;
75935;SDS011;64614;32.062;34.834;2022-12-07T10:20:12;13.48;;;6.10;;
75935;SDS011;64614;32.062;34.834;2022-12-07T10:25:43;17.60;;;6.65;;
75935;SDS011;64614;32.062;34.834;2022-12-07T10:28:16;14.82;;;6.20;;
75935;SDS011;64614;32.062;34.834;2022-12-07T10:30:50;14.18;;;6.38;;
75935;SDS011;64614;32.062;34.834;2022-12-07T10:33:51;15.05;;;6.07;;
75935;SDS011;64614;32.062;34.834;2022-12-07T10:36:20;13.80;;;5.72;;
75935;SDS011;64614;32.062;34.834;2022-12-07T10:38:53;11.23;;;5.32;;
75935;SDS011;64614;32.062;34.834;2022-12-07T10:41:26;14.07;;;6.07;;
75935;SDS011;64614;32.062;34.834;2022-12-07T10:43:53;12.40;;;5.72;;
75935;SDS011;64614;32.062;34.834;2022-12-07T10:51:46;12.27;;;6.00;;
75935;SDS011;64614;32.062;34.834;2022-12-07T10:57:32;11.05;;;5.80;;
75935;SDS011;64614;32.062;34.834;2022-12-07T11:00:21;11.43;;;5.72;;
75935;SDS011;64614;32.062;34.834;2022-12-07T11:05:39;11.88;;;5.55;;
75935;SDS011;64614;32.062;34.834;2022-12-07T11:13:53;11.25;;;5.20;;
75935;SDS011;64614;32.062;34.834;2022-12-07T11:16:42;14.05;;;5.03;;
75935;SDS011;64614;32.062;34.834;2022-12-07T11:22:02;10.63;;;5.10;;
75935;SDS011;64614;32.062;34.834;2022-12-07T11:30:18;12.77;;;4.93;;
75935;SDS011;64614;32.062;34.834;2022-12-07T11:32:57;13.80;;;5.35;;
75935;SDS011;64614;32.062;34.834;2022-12-07T11:41:08;15.00;;;5.90;;
75935;SDS011;64614;32.062;34.834;2022-12-07T11:46:29;13.60;;;5.07;;
75935;SDS011;64614;32.062;34.834;2022-12-07T11:51:51;14.25;;;5.15;;
75935;SDS011;64614;32.062;34.834;2022-12-07T11:54:26;20.52;;;5.30;;
75935;SDS011;64614;32.062;34.834;2022-12-07T11:56:56;12.93;;;5.30;;
75935;SDS011;64614;32.062;34.834;2022-12-07T11:59:31;11.70;;;4.80;;
75935;SDS011;64614;32.062;34.834;2022-12-07T12:02:26;14.82;;;5.47;;
75935;SDS011;64614;32.062;34.834;2022-12-07T12:07:42;13.15;;;5.32;;
75935;SDS011;64614;32.062;34.834;2022-12-07T12:10:18;10.35;;;5.25;;
75935;SDS011;64614;32.062;34.834;2022-12-07T12:18:26;10.32;;;4.93;;
75935;SDS011;64614;32.062;34.834;2022-12-07T12:24:28;10.95;;;5.10;;
75935;SDS011;64614;32.062;34.834;2022-12-07T12:27:02;10.73;;;4.45;;
75935;SDS011;64614;32.062;34.834;2022-12-07T12:29:33;11.70;;;5.32;;
75935;SDS011;64614;32.062;34.834;2022-12-07T12:32:07;11.10;;;4.78;;
75935;SDS011;64614;32.062;34.834;2022-12-07T12:42:45;9.57;;;4.47;;
75935;SDS011;64614;32.062;34.834;2022-12-07T12:45:27;8.50;;;4.13;;
75935;SDS011;64614;32.062;34.834;2022-12-07T12:48:00;18.30;;;5.10;;
75935;SDS011;64614;32.062;34.834;2022-12-07T12:50:34;11.48;;;4.53;;
75935;SDS011;64614;32.062;34.834;2022-12-07T12:55:45;10.25;;;4.57;;
75935;SDS011;64614;32.062;34.834;2022-12-07T12:58:28;14.23;;;4.35;;
75935;SDS011;64614;32.062;34.834;2022-12-07T13:04:12;9.90;;;4.40;;
75935;SDS011;64614;32.062;34.834;2022-12-07T13:06:43;13.25;;;4.40;;
75935;SDS011;64614;32.062;34.834;2022-12-07T13:09:31;13.93;;;4.47;;
75935;SDS011;64614;32.062;34.834;2022-12-07T13:12:11;12.82;;;4.20;;
75935;SDS011;64614;32.062;34.834;2022-12-07T13:20:03;8.70;;;3.95;;
75935;SDS011;64614;32.062;34.834;2022-12-07T13:28:09;13.05;;;4.20;;
75935;SDS011;64614;32.062;34.834;2022-12-07T13:33:29;12.20;;;4.28;;
75935;SDS011;64614;32.062;34.834;2022-12-07T13:35:57;8.68;;;4.07;;
75935;SDS011;64614;32.062;34.834;2022-12-07T13:38:32;9.07;;;4.05;;
75935;SDS011;64614;32.062;34.834;2022-12-07T13:41:15;8.18;;;4.03;;
75935;SDS011;64614;32.062;34.834;2022-12-07T13:44:33;8.20;;;4.10;;
75935;SDS011;64614;32.062;34.834;2022-12-07T13:47:04;9.48;;;4.03;;
75935;SDS011;64614;32.062;34.834;2022-12-07T13:49:38;7.32;;;3.67;;
75935;SDS011;64614;32.062;34.834;2022-12-07T13:54:55;10.90;;;3.97;;
75935;SDS011;64614;32.062;34.834;2022-12-07T13:57:21;8.00;;;3.92;;
75935;SDS011;64614;32.062;34.834;2022-12-07T13:59:49;9.48;;;3.90;;
75935;SDS011;64614;32.062;34.834;2022-12-07T14:04:51;7.22;;;3.55;;
75935;SDS011;64614;32.062;34.834;2022-12-07T14:07:27;9.10;;;4.03;;
75935;SDS011;64614;32.062;34.834;2022-12-07T14:10:00;7.53;;;3.75;;
75935;SDS011;64614;32.062;34.834;2022-12-07T14:12:30;7.75;;;3.90;;
75935;SDS011;64614;32.062;34.834;2022-12-07T14:14:58;8.27;;;3.53;;
75935;SDS011;64614;32.062;34.834;2022-12-07T14:20:49;8.65;;;4.00;;
75935;SDS011;64614;32.062;34.834;2022-12-07T14:23:30;7.07;;;3.85;;
75935;SDS011;64614;32.062;34.834;2022-12-07T14:26:06;8.38;;;3.70;;
75935;SDS011;64614;32.062;34.834;2022-12-07T14:28:44;8.63;;;3.70;;
75935;SDS011;64614;32.062;34.834;2022-12-07T14:31:12;6.68;;;3.50;;
75935;SDS011;64614;32.062;34.834;2022-12-07T14:33:40;8.88;;;4.20;;
75935;SDS011;64614;32.062;34.834;2022-12-07T14:36:09;11.57;;;4.05;;
75935;SDS011;64614;32.062;34.834;2022-12-07T14:38:37;13.90;;;4.22;;
75935;SDS011;64614;32.062;34.834;2022-12-07T14:41:03;7.15;;;3.60;;
75935;SDS011;64614;32.062;34.834;2022-12-07T14:43:50;9.27;;;3.80;;
75935;SDS011;64614;32.062;34.834;2022-12-07T14:46:16;7.85;;;3.60;;
75935;SDS011;64614;32.062;34.834;2022-12-07T14:48:41;10.88;;;4.15;;
75935;SDS011;64614;32.062;34.834;2022-12-07T14:51:08;6.57;;;3.60;;
75935;SDS011;64614;32.062;34.834;2022-12-07T14:53:39;12.57;;;3.70;;
75935;SDS011;64614;32.062;34.834;2022-12-07T14:56:08;7.30;;;3.63;;
75935;SDS011;64614;32.062;34.834;2022-12-07T14:58:34;8.32;;;3.60;;
75935;SDS011;64614;32.062;34.834;2022-12-07T15:01:00;9.90;;;3.60;;
75935;SDS011;64614;32.062;34.834;2022-12-07T15:03:27;8.95;;;3.50;;
75935;SDS011;64614;32.062;34.834;2022-12-07T15:05:53;5.93;;;3.35;;
75935;SDS011;64614;32.062;34.834;2022-12-07T15:08:18;12.82;;;3.78;;
75935;SDS011;64614;32.062;34.834;2022-12-07T15:10:44;12.18;;;4.35;;
75935;SDS011;64614;32.062;34.834;2022-12-07T15:13:10;12.65;;;4.05;;
75935;SDS011;64614;32.062;34.834;2022-12-07T15:15:54;9.43;;;3.63;;
75935;SDS011;64614;32.062;34.834;2022-12-07T15:18:21;11.10;;;3.90;;
75935;SDS011;64614;32.062;34.834;2022-12-07T15:20:47;9.50;;;4.13;;
75935;SDS011;64614;32.062;34.834;2022-12-07T15:23:15;12.82;;;3.60;;
75935;SDS011;64614;32.062;34.834;2022-12-07T15:25:41;9.40;;;3.70;;
75935;SDS011;64614;32.062;34.834;2022-12-07T15:28:07;8.55;;;3.67;;
75935;SDS011;64614;32.062;34.834;2022-12-07T15:30:33;11.20;;;3.67;;
75935;SDS011;64614;32.062;34.834;2022-12-07T15:32:59;10.25;;;3.53;;
75935;SDS011;64614;32.062;34.834;2022-12-07T15:35:25;9.55;;;3.70;;
75935;SDS011;64614;32.062;34.834;2022-12-07T15:37:50;10.55;;;4.32;;
75935;SDS011;64614;32.062;34.834;2022-12-07T15:40:16;9.82;;;4.00;;
75935;SDS011;64614;32.062;34.834;2022-12-07T15:42:42;9.30;;;3.88;;
75935;SDS011;64614;32.062;34.834;2022-12-07T15:45:07;10.43;;;4.03;;
75935;SDS011;64614;32.062;34.834;2022-12-07T15:47:35;9.10;;;3.58;;
75935;SDS011;64614;32.062;34.834;2022-12-07T15:50:06;13.15;;;4.15;;
75935;SDS011;64614;32.062;34.834;2022-12-07T15:52:34;9.15;;;3.85;;
75935;SDS011;64614;32.062;34.834;2022-12-07T15:55:00;8.40;;;3.80;;
75935;SDS011;64614;32.062;34.834;2022-12-07T15:57:31;10.35;;;4.03;;
75935;SDS011;64614;32.062;34.834;2022-12-07T15:59:58;8.13;;;3.60;;
75935;SDS011;64614;32.062;34.834;2022-12-07T16:02:24;9.23;;;3.83;;
75935;SDS011;64614;32.062;34.834;2022-12-07T16:04:50;8.52;;;3.55;;
75935;SDS011;64614;32.062;34.834;2022-12-07T16:07:17;8.02;;;4.18;;
75935;SDS011;64614;32.062;34.834;2022-12-07T16:09:43;7.85;;;3.53;;
75935;SDS011;64614;32.062;34.834;2022-12-07T16:12:10;9.80;;;3.38;;
75935;SDS011;64614;32.062;34.834;2022-12-07T16:14:37;8.38;;;4.03;;
75935;SDS011;64614;32.062;34.834;2022-12-07T16:17:03;8.50;;;3.80;;
75935;SDS011;64614;32.062;34.834;2022-12-07T16:19:29;7.30;;;3.40;;
75935;SDS011;64614;32.062;34.834;2022-12-07T16:21:56;8.48;;;3.75;;
75935;SDS011;64614;32.062;34.834;2022-12-07T16:24:22;9.68;;;4.20;;
75935;SDS011;64614;32.062;34.834;2022-12-07T16:26:47;9.85;;;3.72;;
75935;SDS011;64614;32.062;34.834;2022-12-07T16:29:13;10.52;;;3.88;;
75935;SDS011;64614;32.062;34.834;2022-12-07T16:31:39;11.75;;;4.15;;
75935;SDS011;64614;32.062;34.834;2022-12-07T16:34:05;11.15;;;4.32;;
75935;SDS011;64614;32.062;34.834;2022-12-07T16:36:32;10.80;;;3.97;;
75935;SDS011;64614;32.062;34.834;2022-12-07T16:38:59;11.25;;;3.83;;
75935;SDS011;64614;32.062;34.834;2022-12-07T16:41:25;11.93;;;4.22;;
75935;SDS011;64614;32.062;34.834;2022-12-07T16:43:51;11.90;;;4.32;;
75935;SDS011;64614;32.062;34.834;2022-12-07T16:46:17;14.38;;;4.60;;